createdAt,value
2023-05-23T00:00:16.691Z,7.28
2023-05-23T00:05:41.734Z,9.90
2023-05-23T00:10:45.884Z,8.77
2023-05-23T00:15:49.973Z,9.25
2023-05-23T00:20:54.826Z,7.82
2023-05-23T00:25:58.524Z,6.82
2023-05-23T00:31:02.241Z,7.90
2023-05-23T00:36:07.594Z,10.15
2023-05-23T00:41:11.070Z,7.47
2023-05-23T00:46:15.213Z,9.38
2023-05-23T00:51:20.230Z,7.53
2023-05-23T00:56:26.848Z,7.03
2023-05-23T01:01:30.349Z,10.75
2023-05-23T01:06:36.931Z,8.50
2023-05-23T01:11:47.342Z,13.30
2023-05-23T01:16:59.214Z,13.45
2023-05-23T01:22:13.768Z,11.00
2023-05-23T01:27:27.112Z,12.95
2023-05-23T01:32:33.432Z,10.20
2023-05-23T01:37:36.908Z,9.93
2023-05-23T01:42:41.084Z,10.10
2023-05-23T01:47:47.906Z,9.40
2023-05-23T01:52:52.482Z,10.88
2023-05-23T01:57:57.628Z,9.13
2023-05-23T02:03:02.684Z,11.93
2023-05-23T02:08:06.246Z,10.00
2023-05-23T02:13:09.704Z,12.32
2023-05-23T02:18:14.627Z,9.27
2023-05-23T02:23:18.398Z,14.23
2023-05-23T02:28:21.836Z,8.27
2023-05-23T02:33:26.886Z,9.48
2023-05-23T02:38:30.964Z,11.88
2023-05-23T02:43:34.773Z,11.25
2023-05-23T02:48:39.665Z,11.05
2023-05-23T02:53:43.443Z,12.15
2023-05-23T02:58:46.988Z,9.80
2023-05-23T03:03:52.109Z,11.27
2023-05-23T03:08:55.742Z,10.55
2023-05-23T03:13:59.323Z,10.13
2023-05-23T03:19:04.797Z,9.07
2023-05-23T03:24:08.429Z,10.25
2023-05-23T03:29:12.462Z,10.70
2023-05-23T03:34:18.023Z,9.63
2023-05-23T03:39:21.562Z,9.52
2023-05-23T03:44:25.153Z,10.57
2023-05-23T03:49:30.229Z,7.65
2023-05-23T03:54:33.781Z,11.95
2023-05-23T03:59:37.403Z,9.77
2023-05-23T04:04:42.279Z,11.27
2023-05-23T04:09:45.878Z,10.98
2023-05-23T04:14:50.351Z,8.82
2023-05-23T04:19:56.123Z,7.90
2023-05-23T04:25:00.406Z,7.93
2023-05-23T04:30:03.936Z,8.75
2023-05-23T04:35:10.291Z,9.60
2023-05-23T04:40:16.224Z,8.02
2023-05-23T04:45:19.745Z,13.57
2023-05-23T04:50:24.638Z,12.10
2023-05-23T04:55:28.138Z,9.85
2023-05-23T05:00:31.744Z,11.07
2023-05-23T05:05:37.360Z,14.15
2023-05-23T05:10:42.223Z,11.82
2023-05-23T05:15:46.230Z,12.68
2023-05-23T05:20:51.540Z,9.32
2023-05-23T05:25:57.053Z,11.63
2023-05-23T05:31:05.074Z,9.43
2023-05-23T05:36:10.435Z,12.60
2023-05-23T05:41:14.562Z,10.85
2023-05-23T05:46:18.087Z,11.88
2023-05-23T05:51:23.300Z,11.40
2023-05-23T05:56:28.156Z,11.50
2023-05-23T06:01:31.933Z,14.07
2023-05-23T06:06:37.155Z,13.45
2023-05-23T06:11:41.154Z,15.27
2023-05-23T06:16:44.870Z,12.10
2023-05-23T06:21:50.121Z,14.52
2023-05-23T06:26:53.690Z,14.05
2023-05-23T06:31:57.352Z,19.95
2023-05-23T06:37:02.512Z,13.88
2023-05-23T06:42:06.437Z,11.98
2023-05-23T06:47:10.218Z,13.80
2023-05-23T06:52:15.410Z,14.93
2023-05-23T06:57:19.120Z,12.30
2023-05-23T07:02:22.814Z,13.68
2023-05-23T07:07:27.878Z,14.93
2023-05-23T07:12:33.442Z,13.93
2023-05-23T07:17:38.234Z,15.80
2023-05-23T07:22:43.447Z,14.07
2023-05-23T07:27:46.920Z,12.25
2023-05-23T07:32:52.504Z,11.88
2023-05-23T07:37:57.890Z,14.13
2023-05-23T07:43:01.461Z,11.63
2023-05-23T07:48:05.329Z,12.60
2023-05-23T07:53:10.236Z,19.95
2023-05-23T07:58:14.039Z,12.10
2023-05-23T08:03:19.153Z,11.50
2023-05-23T08:08:24.082Z,11.48
2023-05-23T08:13:28.461Z,13.38
2023-05-23T08:18:31.980Z,9.90
2023-05-23T08:23:37.112Z,10.52
2023-05-23T08:28:40.760Z,11.07
2023-05-23T08:33:44.792Z,10.32
2023-05-23T08:38:50.697Z,8.35
2023-05-23T08:43:54.360Z,14.07
2023-05-23T08:49:00.454Z,14.10
2023-05-23T08:54:06.399Z,10.57
2023-05-23T08:59:11.169Z,14.68
2023-05-23T09:04:14.820Z,11.10
2023-05-23T09:09:19.759Z,10.07
2023-05-23T09:14:23.205Z,13.35
2023-05-23T09:19:26.740Z,14.48
2023-05-23T09:24:37.434Z,9.05
2023-05-23T09:29:41.184Z,10.27
2023-05-23T09:34:59.691Z,10.98
2023-05-23T09:40:12.125Z,11.75
2023-05-23T09:50:20.024Z,15.38
2023-05-23T09:55:24.935Z,13.15
2023-05-23T10:00:29.006Z,13.95
2023-05-23T10:05:37.404Z,15.48
2023-05-23T10:11:31.224Z,16.38
2023-05-23T10:16:41.682Z,12.85
2023-05-23T10:21:56.773Z,13.88
2023-05-23T10:27:01.654Z,16.08
2023-05-23T10:32:08.316Z,16.60
2023-05-23T10:37:19.146Z,13.85
2023-05-23T10:42:36.816Z,17.52
2023-05-23T10:47:40.361Z,16.17
2023-05-23T10:52:45.142Z,15.23
2023-05-23T10:58:10.771Z,10.52
2023-05-23T11:03:14.782Z,11.25
2023-05-23T11:08:19.012Z,13.80
2023-05-23T11:13:24.495Z,8.45
2023-05-23T11:18:30.986Z,12.55
2023-05-23T11:23:41.955Z,14.35
2023-05-23T11:29:00.035Z,9.00
2023-05-23T11:34:03.710Z,9.25
2023-05-23T11:39:07.545Z,10.07
2023-05-23T11:44:15.350Z,8.27
2023-05-23T11:49:18.758Z,8.65
2023-05-23T11:54:24.535Z,10.10
2023-05-23T11:59:29.439Z,9.68
2023-05-23T12:04:32.983Z,8.68
2023-05-23T12:09:43.983Z,9.60
2023-05-23T12:14:48.966Z,9.93
2023-05-23T12:19:54.327Z,8.57
2023-05-23T12:24:58.216Z,8.98
2023-05-23T12:30:13.109Z,8.65
2023-05-23T12:35:17.058Z,8.25
2023-05-23T12:40:21.548Z,11.50
2023-05-23T12:45:32.744Z,10.05
2023-05-23T12:50:36.285Z,9.45
2023-05-23T12:55:39.875Z,11.93
2023-05-23T13:00:44.810Z,9.23
2023-05-23T13:05:48.365Z,9.30
2023-05-23T13:10:52.558Z,7.88
2023-05-23T13:15:57.902Z,9.18
2023-05-23T13:21:01.672Z,10.15
2023-05-23T13:26:05.265Z,8.48
2023-05-23T13:31:10.130Z,9.90
2023-05-23T13:36:14.025Z,9.32
2023-05-23T13:41:17.764Z,9.43
2023-05-23T13:46:22.669Z,9.00
2023-05-23T13:51:26.481Z,10.80
2023-05-23T13:56:30.216Z,10.50
2023-05-23T14:01:35.077Z,10.90
2023-05-23T14:06:38.986Z,12.40
2023-05-23T14:11:42.636Z,10.07
2023-05-23T14:16:47.835Z,7.25
2023-05-23T14:21:51.355Z,9.25
2023-05-23T14:26:54.808Z,7.97
2023-05-23T14:32:00.947Z,8.85
2023-05-23T14:37:04.843Z,7.55
2023-05-23T14:42:08.455Z,9.13
2023-05-23T14:47:15.895Z,8.23
2023-05-23T14:52:19.385Z,7.38
2023-05-23T14:57:22.912Z,8.52
2023-05-23T15:02:28.116Z,9.35
2023-05-23T15:07:32.385Z,8.85
2023-05-23T15:12:36.070Z,10.38
2023-05-23T15:17:41.238Z,10.13
2023-05-23T15:22:44.800Z,9.15
2023-05-23T15:27:48.362Z,10.13
2023-05-23T15:32:56.886Z,13.43
2023-05-23T15:38:01.494Z,9.23
2023-05-23T15:43:04.980Z,7.45
2023-05-23T15:48:09.880Z,8.00
2023-05-23T15:53:13.471Z,5.72
2023-05-23T15:58:17.018Z,8.75
2023-05-23T16:03:22.127Z,6.45
2023-05-23T16:08:25.672Z,7.35
2023-05-23T16:13:29.175Z,7.72
2023-05-23T16:18:34.191Z,5.22
2023-05-23T16:23:37.626Z,7.10
2023-05-23T16:28:42.439Z,7.95
2023-05-23T16:33:47.497Z,7.15
2023-05-23T16:38:52.504Z,10.40
2023-05-23T16:43:57.632Z,12.50
2023-05-23T16:49:02.486Z,8.77
2023-05-23T16:54:07.576Z,8.70
2023-05-23T16:59:11.118Z,7.22
2023-05-23T17:04:17.670Z,8.23
2023-05-23T17:09:23.654Z,12.90
2023-05-23T17:14:27.478Z,9.00
2023-05-23T17:19:32.899Z,12.80
2023-05-23T17:24:37.334Z,8.77
2023-05-23T17:29:40.890Z,11.93
2023-05-23T17:34:46.423Z,10.27
2023-05-23T17:39:51.093Z,8.13
2023-05-23T17:44:54.696Z,11.02
2023-05-23T17:49:59.563Z,11.20
2023-05-23T17:55:03.754Z,14.95
2023-05-23T18:00:08.546Z,8.68
2023-05-23T18:05:13.634Z,11.15
2023-05-23T18:10:17.450Z,9.48
2023-05-23T18:15:20.990Z,9.45
2023-05-23T18:20:26.485Z,11.93
2023-05-23T18:25:29.913Z,9.40
2023-05-23T18:30:33.685Z,10.00
2023-05-23T18:35:38.730Z,11.77
2023-05-23T18:40:42.572Z,11.82
2023-05-23T18:45:46.376Z,12.45
2023-05-23T18:50:51.902Z,10.48
2023-05-23T18:55:55.578Z,12.68
2023-05-23T19:01:03.560Z,12.40
2023-05-23T19:06:09.065Z,12.15
2023-05-23T19:11:12.603Z,11.75
2023-05-23T19:16:17.394Z,11.48
2023-05-23T19:21:22.614Z,11.63
2023-05-23T19:26:26.157Z,11.18
2023-05-23T19:31:29.800Z,10.23
2023-05-23T19:36:35.566Z,11.80
2023-05-23T19:41:39.065Z,9.45
2023-05-23T19:46:42.784Z,9.38
2023-05-23T19:51:47.653Z,9.30
2023-05-23T19:56:51.297Z,12.60
2023-05-23T20:01:54.818Z,9.27
2023-05-23T20:07:00.351Z,9.13
2023-05-23T20:12:03.861Z,9.05
2023-05-23T20:17:08.044Z,12.30
2023-05-23T20:22:13.194Z,9.93
2023-05-23T20:27:16.952Z,11.30
2023-05-23T20:32:20.827Z,13.52
2023-05-23T20:37:28.233Z,11.70
2023-05-23T20:42:32.776Z,15.48
2023-05-23T20:47:37.476Z,15.45
2023-05-23T20:52:43.079Z,12.60
2023-05-23T20:57:46.942Z,17.83
2023-05-23T21:02:50.568Z,14.05
2023-05-23T21:07:55.665Z,13.35
2023-05-23T21:13:00.260Z,12.50
2023-05-23T21:18:03.837Z,14.98
2023-05-23T21:23:09.052Z,15.68
2023-05-23T21:28:12.683Z,13.40
2023-05-23T21:33:16.553Z,20.08
2023-05-23T21:38:21.657Z,13.95
2023-05-23T21:43:25.246Z,16.40
2023-05-23T21:48:28.979Z,16.05
2023-05-23T21:53:33.830Z,16.52
2023-05-23T21:58:37.497Z,16.95
2023-05-23T22:03:41.071Z,15.05
2023-05-23T22:08:46.252Z,16.98
2023-05-23T22:13:50.164Z,18.98
2023-05-23T22:18:53.869Z,17.65
2023-05-23T22:23:59.028Z,20.73
2023-05-23T22:29:02.585Z,17.50
2023-05-23T22:34:06.047Z,17.17
2023-05-23T22:39:10.920Z,15.00
2023-05-23T22:44:14.576Z,12.20
2023-05-23T22:49:21.691Z,11.68
2023-05-23T22:54:26.514Z,11.70
2023-05-23T22:59:31.097Z,11.32
2023-05-23T23:04:35.392Z,12.93
2023-05-23T23:09:40.473Z,11.32
2023-05-23T23:14:43.986Z,15.07
2023-05-23T23:19:49.565Z,10.98
2023-05-23T23:24:56.187Z,13.60
2023-05-23T23:29:59.933Z,10.07
2023-05-23T23:35:03.568Z,13.68
2023-05-23T23:40:10.061Z,11.93
2023-05-23T23:45:13.728Z,16.77
2023-05-23T23:50:17.453Z,14.57
2023-05-23T23:55:22.281Z,15.93
